Aviation Digital Data Service (ADDS)

Output produced by METARs form (1114 UTC 22 November 2017)
found at http://aviationweather.gov/adds/metars/
 
KBWI 220859Z 2209/2312 25004KT 6SM -RA SCT025 OVC060 
     FM221100 29010KT P6SM SCT060 BKN130 
     FM221400 32015G27KT P6SM FEW060 
     FM230000 32010KT P6SM SKC 
     FM230900 31005KT P6SM SKC